메인 페이지
METAR-TAF:

METAR-TAF

공항 :

케이프타운 국제공항

케이프타운, 남아프리카공화국

위도: 33-59S, 경도: 018-36E, 고도: 42m

현재 날씨관측

예보는 50분 전, 05:00시(UTC)에 발표되었습니다.
5kt
온도 11°C
습도 87%
기압 1018 hPa
시정 10km 이상
1500m 미만 상공 구름 및 적란운 없음

METAR: FACT 230500Z 36005KT CAVOK 11/09 Q1018 NOSIG

시각: 07:50 (05:50 UTC)

예보

예보는 3 시간 10분 전, 02:40시(UTC)에 발표되었습니다.
예보 대상 시간: 23일 00시부터 24일 06시까지 (UTC)
북북동10kt
시정 10km 이상
1500m 미만 상공 구름 및 적란운 없음
23일 1000시부터 (UTC)
북서12kt
시정 10km 이상
고도 2500ft 상공 구름 조금
23일 1500시부터 (UTC)
북북서13kt
시정 10km 이상
고도 800ft 상공 구름 보통
고도 2000ft 상공 구름 많음
확률 30% :
일시적
23일 15시부터 24일 06시까지 (UTC)
고도 800ft 상공 구름 많음

TAF: FACT 230240Z 2300/2406 02010KT CAVOK FM231000 32012KT 9999 FEW025 FM231500 34013KT 9999 SCT008 BKN020 PROB30 TEMPO 2315/2406 BKN008 TX20/2312Z TN12/2406Z

4,000개 이상의 공항 관측 자료 및 예보 (METAR 및 TAF 보고).

지도상에서 검색 가능한 기상관측소가 노란 점과 빨간 점으로 표시되어 있습니다.

기상관측소 명을 보려면 표시 위로 마우스를 이동하세요.

날씨 관측과 예보를 보려면 클릭하세요.

지도 변경 : 확대하려면 엑스 표시가 있는 녹색 버튼, 축소하려면 빼기 표시가 있는 녹색 버튼, 다음 페이지의 지도를 보려면 녹색 화살표를 클릭하세요.


METAR-TAF: